Inarajan, Guam
Current Conditions -  °F | °C
As of 11:54 AM on Tuesday 21 Oct 2014 (Local Time) from PGUM Reporting Station
Broken Clouds Broken Clouds  
Wind Chill: 86°   Ceiling: 6000
Heat Index: 95°   Visibility: 10mi
Dew Point: 75°   Wind: 15mph
Humidity: 70%   Direction: 40°NE
Pressure: 29.85"   Gusts: NA
Location:  13.28°N, 144.74°E
Report Text: PGUM 210154Z 04013KT 10SM FEW024 SCT031 BKN060 30/24 A2985 RMK AO2 RAB42E51 SLP099 P0001 T03000239
Loading
Personal Weather Stations






























Interactive Weather Map
Tropical Storm Tracking
New forecast layout! Learn more

10-Day Weather Forecast

Advertisements
Track Severe Weather on mobile